createdAt,value
2022-10-08T00:00:02.126Z,12.46
2022-10-08T00:03:21.802Z,12.44
2022-10-08T00:06:14.654Z,12.42
2022-10-08T00:09:06.285Z,12.39
2022-10-08T00:11:54.518Z,12.36
2022-10-08T00:14:43.587Z,12.32
2022-10-08T00:17:32.777Z,12.29
2022-10-08T00:20:22.732Z,12.25
2022-10-08T00:23:11.896Z,12.22
2022-10-08T00:26:06.665Z,12.19
2022-10-08T00:28:56.930Z,12.15
2022-10-08T00:31:48.290Z,12.12
2022-10-08T00:34:36.951Z,12.10
2022-10-08T00:37:26.326Z,12.07
2022-10-08T00:40:15.484Z,12.05
2022-10-08T00:43:04.237Z,12.01
2022-10-08T00:45:52.831Z,11.97
2022-10-08T00:48:41.802Z,11.94
2022-10-08T00:51:32.060Z,11.91
2022-10-08T00:54:21.951Z,11.88
2022-10-08T00:57:12.220Z,11.87
2022-10-08T01:00:02.487Z,11.85
2022-10-08T01:02:52.281Z,11.82
2022-10-08T01:05:50.505Z,11.80
2022-10-08T01:08:49.657Z,11.78
2022-10-08T01:11:47.832Z,11.74
2022-10-08T01:14:48.673Z,11.71
2022-10-08T01:17:42.087Z,11.70
2022-10-08T01:20:43.010Z,11.67
2022-10-08T01:24:09.003Z,11.64
2022-10-08T01:27:03.935Z,11.63
2022-10-08T01:29:54.109Z,11.60
2022-10-08T01:32:47.750Z,11.58
2022-10-08T01:35:37.770Z,11.56
2022-10-08T01:38:29.751Z,11.54
2022-10-08T01:41:19.346Z,11.51
2022-10-08T01:44:13.348Z,11.46
2022-10-08T01:47:07.314Z,11.42
2022-10-08T01:50:00.705Z,11.39
2022-10-08T01:52:54.060Z,11.33
2022-10-08T01:55:45.815Z,11.29
2022-10-08T01:58:38.563Z,11.25
2022-10-08T02:01:33.877Z,11.19
2022-10-08T02:04:33.071Z,11.18
2022-10-08T02:07:23.551Z,11.15
2022-10-08T02:10:14.208Z,11.14
2022-10-08T02:13:03.185Z,11.16
2022-10-08T02:16:00.064Z,11.14
2022-10-08T02:18:57.876Z,11.14
2022-10-08T02:21:48.066Z,11.14
2022-10-08T02:24:42.701Z,11.14
2022-10-08T02:27:42.164Z,11.13
2022-10-08T02:30:36.808Z,11.12
2022-10-08T02:33:31.146Z,11.09
2022-10-08T02:36:27.074Z,11.07
2022-10-08T02:39:18.051Z,11.05
2022-10-08T02:42:10.554Z,11.04
2022-10-08T02:45:00.429Z,11.01
2022-10-08T02:47:56.148Z,10.98
2022-10-08T02:50:48.902Z,10.97
2022-10-08T02:53:40.459Z,10.96
2022-10-08T02:56:35.994Z,10.95
2022-10-08T02:59:26.184Z,10.94
2022-10-08T03:02:19.673Z,10.93
2022-10-08T03:05:13.873Z,10.92
2022-10-08T03:08:05.270Z,10.91
2022-10-08T03:10:55.483Z,10.89
2022-10-08T03:13:48.565Z,10.88
2022-10-08T03:16:40.852Z,10.84
2022-10-08T03:19:28.972Z,10.82
2022-10-08T03:22:18.341Z,10.78
2022-10-08T03:25:09.561Z,10.75
2022-10-08T03:27:57.928Z,10.74
2022-10-08T03:30:47.591Z,10.72
2022-10-08T03:33:36.639Z,10.69
2022-10-08T03:36:26.416Z,10.66
2022-10-08T03:39:15.375Z,10.62
2022-10-08T03:42:03.902Z,10.60
2022-10-08T03:44:54.120Z,10.55
2022-10-08T03:47:42.661Z,10.51
2022-10-08T03:50:31.418Z,10.50
2022-10-08T03:53:20.835Z,10.48
2022-10-08T03:56:12.979Z,10.47
2022-10-08T03:59:03.263Z,10.44
2022-10-08T04:01:52.651Z,10.42
2022-10-08T04:04:41.335Z,10.43
2022-10-08T04:07:30.092Z,10.41
2022-10-08T04:10:19.278Z,10.39
2022-10-08T04:13:08.009Z,10.36
2022-10-08T04:16:01.942Z,10.34
2022-10-08T04:18:50.410Z,10.31
2022-10-08T04:21:39.781Z,10.28
2022-10-08T04:24:28.358Z,10.26
2022-10-08T04:27:16.821Z,10.23
2022-10-08T04:30:09.406Z,10.20
2022-10-08T04:32:58.930Z,10.18
2022-10-08T04:35:47.266Z,10.17
2022-10-08T04:38:36.225Z,10.16
2022-10-08T04:41:26.414Z,10.14
2022-10-08T04:44:15.780Z,10.11
2022-10-08T04:47:04.539Z,10.10
2022-10-08T04:49:53.292Z,10.10
2022-10-08T04:52:42.660Z,10.07
2022-10-08T04:55:31.826Z,10.07
2022-10-08T04:58:19.967Z,10.07
2022-10-08T05:01:11.874Z,10.08
2022-10-08T05:04:01.162Z,10.07
2022-10-08T05:06:50.951Z,10.07
2022-10-08T05:09:40.309Z,10.07
2022-10-08T05:12:28.616Z,10.09
2022-10-08T05:15:17.407Z,10.11
2022-10-08T05:18:06.369Z,10.12
2022-10-08T05:20:55.122Z,10.15
2022-10-08T05:23:45.155Z,10.18
2022-10-08T05:29:45.966Z,10.25
2022-10-08T05:32:34.259Z,10.30
2022-10-08T05:35:22.653Z,10.34
2022-10-08T05:38:11.203Z,10.40
2022-10-08T05:41:11.381Z,10.46
2022-10-08T05:44:01.615Z,10.51
2022-10-08T05:46:50.010Z,10.59
2022-10-08T05:49:38.718Z,10.64
2022-10-08T05:52:27.675Z,10.73
2022-10-08T05:55:19.824Z,10.83
2022-10-08T05:58:09.076Z,10.92
2022-10-08T06:01:01.642Z,11.06
2022-10-08T06:03:51.832Z,11.19
2022-10-08T06:06:42.699Z,11.32
2022-10-08T06:09:31.876Z,11.45
2022-10-08T06:12:20.121Z,11.60
2022-10-08T06:15:11.120Z,11.77
2022-10-08T06:18:01.620Z,11.94
2022-10-08T06:20:50.586Z,12.10
2022-10-08T06:23:40.567Z,12.24
2022-10-08T06:26:35.361Z,12.37
2022-10-08T06:29:24.204Z,12.53
2022-10-08T06:32:12.769Z,12.66
2022-10-08T06:35:02.297Z,12.79
2022-10-08T06:37:51.102Z,12.91
2022-10-08T06:40:40.468Z,13.07
2022-10-08T06:43:29.633Z,13.27
2022-10-08T06:46:19.635Z,13.44
2022-10-08T06:49:10.215Z,13.60
2022-10-08T06:51:58.357Z,13.74
2022-10-08T06:54:47.317Z,13.88
2022-10-08T06:57:36.683Z,14.05
2022-10-08T07:00:25.440Z,14.21
2022-10-08T07:03:14.212Z,14.38
2022-10-08T07:06:04.408Z,14.53
2022-10-08T07:08:55.393Z,14.72
2022-10-08T07:11:44.350Z,14.89
2022-10-08T07:14:32.696Z,15.09
2022-10-08T07:17:22.271Z,15.27
2022-10-08T07:20:11.437Z,15.45
2022-10-08T07:23:00.599Z,15.62
2022-10-08T07:25:58.687Z,15.79
2022-10-08T07:28:51.550Z,15.96
2022-10-08T07:31:40.437Z,16.14
2022-10-08T07:34:29.757Z,16.32
2022-10-08T07:37:18.710Z,16.49
2022-10-08T07:40:11.306Z,16.66
2022-10-08T07:42:59.909Z,16.84
2022-10-08T07:45:49.742Z,17.01
2022-10-08T07:48:39.485Z,17.18
2022-10-08T07:51:29.656Z,17.35
2022-10-08T07:54:19.430Z,17.50
2022-10-08T07:57:07.987Z,17.67
2022-10-08T07:59:56.740Z,17.81
2022-10-08T08:02:48.180Z,17.96
2022-10-08T08:05:36.707Z,18.13
2022-10-08T08:08:25.053Z,18.28
2022-10-08T08:11:16.662Z,18.44
2022-10-08T08:14:05.226Z,18.60
2022-10-08T08:16:53.819Z,18.73
2022-10-08T08:19:44.372Z,18.87
2022-10-08T08:22:33.332Z,19.05
2022-10-08T08:25:22.705Z,19.20
2022-10-08T08:28:11.307Z,19.36
2022-10-08T08:31:10.455Z,19.50
2022-10-08T08:34:00.985Z,19.67
2022-10-08T08:36:51.444Z,19.85
2022-10-08T08:39:40.605Z,20.01
2022-10-08T08:42:47.545Z,20.15
2022-10-08T08:45:53.368Z,20.30
2022-10-08T08:48:44.514Z,20.42
2022-10-08T08:51:34.133Z,20.56
2022-10-08T08:54:22.887Z,20.73
2022-10-08T08:57:22.224Z,20.87
2022-10-08T09:00:17.407Z,21.02
2022-10-08T09:03:13.769Z,21.17
2022-10-08T09:06:09.317Z,21.33
2022-10-08T09:09:01.304Z,21.47
2022-10-08T09:11:51.029Z,21.60
2022-10-08T09:14:43.250Z,21.72
2022-10-08T09:17:33.827Z,21.80
2022-10-08T09:20:24.060Z,21.89
2022-10-08T09:23:16.702Z,21.94
2022-10-08T09:26:15.886Z,22.07
2022-10-08T09:29:06.462Z,22.18
2022-10-08T09:31:55.280Z,22.30
2022-10-08T09:34:44.237Z,22.34
2022-10-08T09:37:32.792Z,22.40
2022-10-08T09:40:23.757Z,22.41
2022-10-08T09:43:18.655Z,22.39
2022-10-08T09:46:27.819Z,22.41
2022-10-08T09:49:32.223Z,22.44
2022-10-08T09:52:26.485Z,22.48
2022-10-08T09:55:21.521Z,22.59
2022-10-08T09:58:18.169Z,22.73
2022-10-08T10:01:14.198Z,22.90
2022-10-08T10:04:04.117Z,22.97
2022-10-08T10:06:55.498Z,23.09
2022-10-08T10:09:44.486Z,23.12
2022-10-08T10:12:37.158Z,23.23
2022-10-08T10:15:33.214Z,23.34
2022-10-08T10:18:26.659Z,23.41
2022-10-08T10:21:20.844Z,23.47
2022-10-08T10:24:30.185Z,23.54
2022-10-08T10:27:33.109Z,23.64
2022-10-08T10:30:24.036Z,23.74
2022-10-08T10:33:19.014Z,23.86
2022-10-08T10:36:11.979Z,24.00
2022-10-08T10:39:10.864Z,24.07
2022-10-08T10:42:10.270Z,24.13
2022-10-08T10:45:03.769Z,24.21
2022-10-08T10:47:53.922Z,24.25
2022-10-08T10:50:50.671Z,24.26
2022-10-08T10:53:49.272Z,24.29
2022-10-08T10:56:44.764Z,24.37
2022-10-08T10:59:44.673Z,24.49
2022-10-08T11:02:42.613Z,24.61
2022-10-08T11:05:33.358Z,24.73
2022-10-08T11:08:33.988Z,24.83
2022-10-08T11:11:33.207Z,24.88
2022-10-08T11:14:49.405Z,24.98
2022-10-08T11:17:53.097Z,24.99
2022-10-08T11:21:01.916Z,25.04
2022-10-08T11:24:10.537Z,25.14
2022-10-08T11:27:11.583Z,25.27
2022-10-08T11:30:06.102Z,25.39
2022-10-08T11:32:57.658Z,25.46
2022-10-08T11:36:02.016Z,25.49
2022-10-08T11:38:57.441Z,25.42
2022-10-08T11:41:53.516Z,25.40
2022-10-08T11:44:43.231Z,25.37
2022-10-08T11:47:53.900Z,25.35
2022-10-08T11:50:44.088Z,25.47
2022-10-08T11:53:32.841Z,25.53
2022-10-08T11:56:21.597Z,25.44
2022-10-08T11:59:36.774Z,25.45
2022-10-08T12:02:29.680Z,25.42
2022-10-08T12:05:33.080Z,25.38
2022-10-08T12:08:50.143Z,25.36
2022-10-08T12:11:55.284Z,25.43
2022-10-08T12:14:49.505Z,25.56
2022-10-08T12:17:52.663Z,25.65
2022-10-08T12:20:43.060Z,25.55
2022-10-08T12:23:40.414Z,25.59
2022-10-08T12:26:29.166Z,25.69
2022-10-08T12:29:49.259Z,25.78
2022-10-08T12:32:57.262Z,25.81
2022-10-08T12:35:58.264Z,25.90
2022-10-08T12:38:56.688Z,25.98
2022-10-08T12:41:55.870Z,26.03
2022-10-08T12:44:58.362Z,26.06
2022-10-08T12:47:55.808Z,26.03
2022-10-08T12:51:00.858Z,25.84
2022-10-08T12:53:50.840Z,25.61
2022-10-08T12:56:40.828Z,25.62
2022-10-08T12:59:31.753Z,25.61
2022-10-08T13:02:38.756Z,25.57
2022-10-08T13:05:30.621Z,25.61
2022-10-08T13:08:28.615Z,25.58
2022-10-08T13:11:17.369Z,25.52
2022-10-08T13:14:05.746Z,25.44
2022-10-08T13:16:55.700Z,25.42
2022-10-08T13:19:44.456Z,25.42
2022-10-08T13:22:33.417Z,25.41
2022-10-08T13:25:40.570Z,25.41
2022-10-08T13:28:58.719Z,25.40
2022-10-08T13:31:37.883Z,25.39
2022-10-08T13:34:29.554Z,25.37
2022-10-08T13:37:25.114Z,25.32
2022-10-08T13:40:22.419Z,25.27
2022-10-08T13:43:11.704Z,25.25
2022-10-08T13:46:00.596Z,25.23
2022-10-08T13:48:49.351Z,25.19
2022-10-08T13:51:40.976Z,25.15
2022-10-08T13:54:31.453Z,25.14
2022-10-08T13:57:19.716Z,25.13
2022-10-08T14:00:14.308Z,25.08
2022-10-08T14:03:03.368Z,24.99
2022-10-08T14:05:52.542Z,24.92
2022-10-08T14:08:41.084Z,24.87
2022-10-08T14:11:29.973Z,24.81
2022-10-08T14:14:18.596Z,24.75
2022-10-08T14:17:07.348Z,24.69
2022-10-08T14:19:56.105Z,24.63
2022-10-08T14:22:45.886Z,24.56
2022-10-08T14:25:34.434Z,24.50
2022-10-08T14:28:22.898Z,24.43
2022-10-08T14:31:13.533Z,24.36
2022-10-08T14:34:02.749Z,24.27
2022-10-08T14:36:55.031Z,24.22
2022-10-08T14:39:45.670Z,24.18
2022-10-08T14:42:34.955Z,24.10
2022-10-08T14:45:23.190Z,24.04
2022-10-08T14:48:12.635Z,23.98
2022-10-08T14:51:01.222Z,23.93
2022-10-08T14:53:50.182Z,23.85
2022-10-08T14:56:38.730Z,23.81
2022-10-08T14:59:27.287Z,23.74
2022-10-08T15:02:17.166Z,23.67
2022-10-08T15:05:09.805Z,23.58
2022-10-08T15:07:58.875Z,23.51
2022-10-08T15:10:48.042Z,23.42
2022-10-08T15:13:36.790Z,23.32
2022-10-08T15:16:25.618Z,23.22
2022-10-08T15:19:17.694Z,23.13
2022-10-08T15:22:08.381Z,23.01
2022-10-08T15:24:56.932Z,22.90
2022-10-08T15:27:45.311Z,22.79
2022-10-08T15:30:34.671Z,22.67
2022-10-08T15:33:23.448Z,22.55
2022-10-08T15:36:20.168Z,22.42
2022-10-08T15:39:11.654Z,22.28
2022-10-08T15:42:00.321Z,22.16
2022-10-08T15:44:49.894Z,22.03
2022-10-08T15:47:39.058Z,21.88
2022-10-08T15:50:27.225Z,21.76
2022-10-08T15:53:15.749Z,21.60
2022-10-08T15:56:05.753Z,21.46
2022-10-08T15:58:54.488Z,21.33
2022-10-08T16:01:43.858Z,21.21
2022-10-08T16:04:32.631Z,21.07
2022-10-08T16:07:21.574Z,20.94
2022-10-08T16:10:10.903Z,20.79
2022-10-08T16:12:59.470Z,20.66
2022-10-08T16:15:48.886Z,20.53
2022-10-08T16:18:38.437Z,20.40
2022-10-08T16:21:28.669Z,20.27
2022-10-08T16:24:16.969Z,20.15
2022-10-08T16:27:05.931Z,20.02
2022-10-08T16:29:54.276Z,19.91
2022-10-08T16:32:45.369Z,19.78
2022-10-08T16:35:37.126Z,19.66
2022-10-08T16:38:26.277Z,19.53
2022-10-08T16:41:17.825Z,19.40
2022-10-08T16:44:12.395Z,19.26
2022-10-08T16:47:01.129Z,19.13
2022-10-08T16:49:50.103Z,19.03
2022-10-08T16:52:39.542Z,18.91
2022-10-08T16:55:28.847Z,18.79
2022-10-08T16:58:17.112Z,18.68
2022-10-08T17:01:07.847Z,18.57
2022-10-08T17:03:57.739Z,18.45
2022-10-08T17:06:47.515Z,18.30
2022-10-08T17:09:37.328Z,18.17
2022-10-08T17:12:26.296Z,18.06
2022-10-08T17:15:15.659Z,17.93
2022-10-08T17:18:05.029Z,17.85
2022-10-08T17:20:56.388Z,17.74
2022-10-08T17:23:46.149Z,17.64
2022-10-08T17:26:35.596Z,17.56
2022-10-08T17:29:24.349Z,17.45
2022-10-08T17:32:12.696Z,17.36
2022-10-08T17:35:01.656Z,17.26
2022-10-08T17:37:50.826Z,17.16
2022-10-08T17:40:39.200Z,17.07
2022-10-08T17:43:27.918Z,16.98
2022-10-08T17:46:18.367Z,16.90
2022-10-08T17:49:07.070Z,16.81
2022-10-08T17:51:55.420Z,16.71
2022-10-08T17:54:43.964Z,16.62
2022-10-08T17:57:32.925Z,16.52
2022-10-08T18:00:22.497Z,16.40
2022-10-08T18:03:12.132Z,16.30
2022-10-08T18:06:01.237Z,16.22
2022-10-08T18:08:55.595Z,16.15
2022-10-08T18:11:45.265Z,16.07
2022-10-08T18:14:34.053Z,16.01
2022-10-08T18:17:22.811Z,15.96
2022-10-08T18:20:12.177Z,15.91
2022-10-08T18:23:00.935Z,15.84
2022-10-08T18:25:53.734Z,15.78
2022-10-08T18:28:42.570Z,15.69
2022-10-08T18:31:32.787Z,15.64
2022-10-08T18:34:21.896Z,15.61
2022-10-08T18:37:10.439Z,15.55
2022-10-08T18:39:58.999Z,15.52
2022-10-08T18:42:48.214Z,15.49
2022-10-08T18:45:38.695Z,15.48
2022-10-08T18:48:28.537Z,15.46
2022-10-08T18:51:20.801Z,15.45
2022-10-08T18:54:09.537Z,15.43
2022-10-08T18:56:59.919Z,15.42
2022-10-08T18:59:50.318Z,15.40
2022-10-08T19:02:38.978Z,15.40
2022-10-08T19:05:28.673Z,15.40
2022-10-08T19:08:18.011Z,15.40
2022-10-08T19:11:12.989Z,15.40
2022-10-08T19:14:02.489Z,15.39
2022-10-08T19:16:52.064Z,15.39
2022-10-08T19:19:40.405Z,15.38
2022-10-08T19:22:28.956Z,15.39
2022-10-08T19:25:18.325Z,15.39
2022-10-08T19:28:06.947Z,15.40
2022-10-08T19:30:55.446Z,15.41
2022-10-08T19:33:47.867Z,15.42
2022-10-08T19:36:36.416Z,15.43
2022-10-08T19:39:26.885Z,15.42
2022-10-08T19:42:15.792Z,15.45
2022-10-08T19:45:05.958Z,15.45
2022-10-08T19:47:55.120Z,15.46
2022-10-08T19:50:43.469Z,15.47
2022-10-08T19:53:33.043Z,15.49
2022-10-08T19:56:22.990Z,15.50
2022-10-08T19:59:12.806Z,15.51
2022-10-08T20:02:01.227Z,15.51
2022-10-08T20:04:50.312Z,15.53
2022-10-08T20:07:40.507Z,15.53
2022-10-08T20:10:29.260Z,15.54
2022-10-08T20:13:18.472Z,15.54
2022-10-08T20:16:08.584Z,15.56
2022-10-08T20:18:59.209Z,15.57
2022-10-08T20:21:50.835Z,15.57
2022-10-08T20:24:39.194Z,15.57
2022-10-08T20:27:27.933Z,15.55
2022-10-08T20:30:17.507Z,15.57
2022-10-08T20:33:06.263Z,15.58
2022-10-08T20:35:55.222Z,15.58
2022-10-08T20:38:44.182Z,15.61
2022-10-08T20:41:33.345Z,15.60
2022-10-08T20:44:23.121Z,15.60
2022-10-08T20:47:11.472Z,15.60
2022-10-08T20:50:00.429Z,15.60
2022-10-08T20:52:51.039Z,15.61
2022-10-08T20:55:40.603Z,15.61
2022-10-08T20:58:29.263Z,15.62
2022-10-08T21:01:20.067Z,15.62
2022-10-08T21:04:09.534Z,15.62
2022-10-08T21:06:58.697Z,15.62
2022-10-08T21:09:51.931Z,15.63
2022-10-08T21:12:40.096Z,15.64
2022-10-08T21:15:29.055Z,15.63
2022-10-08T21:18:18.427Z,15.64
2022-10-08T21:21:08.806Z,15.64
2022-10-08T21:23:57.782Z,15.64
2022-10-08T21:26:46.541Z,15.65
2022-10-08T21:29:36.421Z,15.65
2022-10-08T21:32:24.864Z,15.64
2022-10-08T21:35:13.490Z,15.63
2022-10-08T21:38:01.963Z,15.65
2022-10-08T21:40:56.660Z,15.64
2022-10-08T21:43:47.279Z,15.64
2022-10-08T21:46:38.469Z,15.62
2022-10-08T21:49:27.838Z,15.62
2022-10-08T21:52:17.209Z,15.60
2022-10-08T21:55:08.660Z,15.62
2022-10-08T21:57:57.588Z,15.61
2022-10-08T22:00:46.403Z,15.61
2022-10-08T22:03:35.301Z,15.60
2022-10-08T22:06:27.741Z,15.60
2022-10-08T22:09:18.549Z,15.58
2022-10-08T22:12:08.322Z,15.54
2022-10-08T22:14:57.075Z,15.54
2022-10-08T22:17:46.037Z,15.53
2022-10-08T22:20:37.047Z,15.51
2022-10-08T22:23:26.456Z,15.50
2022-10-08T22:26:17.314Z,15.47
2022-10-08T22:29:07.202Z,15.44
2022-10-08T22:31:55.816Z,15.33
2022-10-08T22:34:44.914Z,15.27
2022-10-08T22:37:33.673Z,15.25
2022-10-08T22:40:23.654Z,15.21
2022-10-08T22:43:12.410Z,15.18
2022-10-08T22:46:05.362Z,15.13
2022-10-08T22:48:58.935Z,15.10
2022-10-08T22:51:47.486Z,15.05
2022-10-08T22:54:36.032Z,14.99
2022-10-08T22:57:25.000Z,14.92
2022-10-08T23:00:16.604Z,14.84
2022-10-08T23:03:05.641Z,14.78
2022-10-08T23:06:07.934Z,14.72
2022-10-08T23:08:58.446Z,14.65
2022-10-08T23:11:46.998Z,14.60
2022-10-08T23:14:36.161Z,14.52
2022-10-08T23:17:24.921Z,14.43
2022-10-08T23:20:14.085Z,14.35
2022-10-08T23:23:02.427Z,14.23
2022-10-08T23:25:55.372Z,14.10
2022-10-08T23:28:44.509Z,14.04
2022-10-08T23:31:36.486Z,13.98
2022-10-08T23:34:25.430Z,13.91
2022-10-08T23:37:14.187Z,13.85
2022-10-08T23:40:03.145Z,13.80
2022-10-08T23:42:53.335Z,13.74
2022-10-08T23:45:41.533Z,13.69
2022-10-08T23:48:30.227Z,13.64
2022-10-08T23:51:20.176Z,13.57
2022-10-08T23:54:09.381Z,13.52
2022-10-08T23:56:57.941Z,13.45
2022-10-08T23:59:47.089Z,13.38
